aviador You're here:

KTTN Decoded Metar

TRENTON in NJ, USA
Report Time2018-05-27 00:53:00
UTC Time2018-05-27 01:13:52
Flight Rules vfr VFR
Wind220° at 05 kt
W.Decomp.*RWY 24: 5.0 kt HW 0.7 kt LCW
RWY 16: 1.5 kt HW 4.8 kt RCW
W.Rank220° ranks 10
Current wind is below 220° avg. (6.6)
Visibility9999 m
Phenomena:N/A
Clouds:Few 070 Hf
Expected CloudBase > 3,600 ft AGL from Temp-Dew spread
CeilingNone
Temp28°C (ISA +13)
Dew Point19°C (58% RH)
Heat Index29.2°C
QNH1010 hPa
Density Alt2,126 ft
Elevation194 ft
Report Wrong Elevation
Raw Report
KTTN 270053Z 22005KT 10SM FEW070 28/19 A2983 RMK AO2 LTG DSNT E-SW
SLP095 T02780189=

Extra information for KTTN:More info

Metar Taf Metar & Taf Last 4 Metars F.Rules Stats Wind Profile Meteogram Temp Stats Airport Information Weather charts Add Link Nearby VenuesMetar ALERT Operation Metar Decoded Social comments

AIRNAV info for KTTN